Alden, Illinois
Current Conditions -  °F | °C
As of 12:15 AM on Friday 31 Oct 2014 (Local Time) from KBUU Reporting Station
Drizzle Drizzle  
Wind Chill: 36°   Ceiling: 5000
Heat Index: 43°   Visibility: 10mi
Dew Point: 37°   Wind: 14mph
Humidity: 79%   Direction: 310°NW
Pressure: 30.02"   Gusts: NA
Location:  42.46°N, 88.52°W
Report Text: KBUU 310515Z AUTO 31012KT 10SM -DZ SCT037 SCT042 OVC050 06/03 A3002 RMK AO2 T00610027
Loading
Personal Weather Stations






























Interactive Weather Map
Tropical Storm Tracking
New forecast layout! Learn more

10-Day Weather Forecast

Advertisements
Track Severe Weather on mobile